Time;durP1;ratioP1;P1;durP2;ratioP2;P2;SDS_P1;SDS_P2;PMS_P1;PMS_P2;Temp;Humidity;BMP_temperature;BMP_pressure;BME280_temperature;BME280_humidity;BME280_pressure;Samples;Min_cycle;Max_cycle;Signal;HPM_P1;HPM_P2
2021/06/07 00:01:59;;;;;;;6.60;3.30;;;;;;;16.75;63.28;100368.59;1810865;77;22218;-67
2021/06/07 00:04:33;;;;;;;3.85;2.77;;;;;;;16.72;63.35;100370.03;1822365;77;22646;-68
2021/06/07 00:07:08;;;;;;;5.90;2.98;;;;;;;16.71;63.41;100368.75;1828301;77;22188;-66
2021/06/07 00:09:41;;;;;;;5.92;3.52;;;;;;;16.70;63.43;100364.36;1803545;77;22661;-69
2021/06/07 00:12:16;;;;;;;7.08;3.47;;;;;;;16.68;63.44;100357.78;1834507;77;22584;-67
2021/06/07 00:14:50;;;;;;;8.23;4.47;;;;;;;16.66;63.47;100367.61;1864549;74;28375;-67
2021/06/07 00:17:23;;;;;;;7.70;3.60;;;;;;;16.69;63.49;100367.48;1813155;77;22174;-68
2021/06/07 00:19:56;;;;;;;8.10;3.83;;;;;;;16.70;63.45;100369.22;1852748;77;22163;-68
2021/06/07 00:22:29;;;;;;;7.20;3.98;;;;;;;16.67;63.41;100367.13;1825742;77;23210;-68
2021/06/07 00:25:06;;;;;;;7.72;4.08;;;;;;;16.65;63.49;100368.05;1844241;77;22203;-68
2021/06/07 00:27:39;;;;;;;5.55;4.20;;;;;;;16.63;63.51;100358.41;1831052;77;22168;-68
2021/06/07 00:30:14;;;;;;;4.97;3.98;;;;;;;16.64;63.53;100361.48;1834460;77;22203;-68
2021/06/07 00:32:47;;;;;;;7.25;4.40;;;;;;;16.68;63.49;100360.89;1819809;77;22202;-68
2021/06/07 00:35:33;;;;;;;7.22;4.12;;;;;;;16.67;63.32;100368.45;1751944;81;21150;-69
2021/06/07 00:38:26;;;;;;;8.13;4.65;;;;;;;16.63;63.53;100371.22;1828721;77;22253;-68
2021/06/07 00:41:03;;;;;;;6.15;4.67;;;;;;;16.62;63.55;100365.50;1833686;77;22184;-67
2021/06/07 00:43:37;;;;;;;10.70;4.30;;;;;;;16.59;63.58;100373.59;1836703;77;22214;-68
2021/06/07 00:46:11;;;;;;;6.80;5.00;;;;;;;16.58;63.66;100369.20;1834332;77;22191;-67
2021/06/07 00:48:45;;;;;;;7.60;4.67;;;;;;;16.56;63.67;100360.89;1816412;77;22623;-67
2021/06/07 00:51:18;;;;;;;5.87;4.80;;;;;;;16.54;63.75;100360.97;1825145;77;22144;-67
2021/06/07 00:53:51;;;;;;;10.13;4.95;;;;;;;16.55;63.76;100365.80;1808605;77;22201;-67
2021/06/07 00:56:25;;;;;;;5.92;4.70;;;;;;;16.53;63.82;100361.89;1819527;77;22607;-65
2021/06/07 00:59:00;;;;;;;10.18;6.97;;;;;;;16.52;63.83;100363.26;1795681;77;28103;-67
2021/06/07 01:01:37;;;;;;;8.05;5.50;;;;;;;16.55;63.81;100362.70;1830915;77;22206;-67
2021/06/07 01:04:11;;;;;;;9.18;5.95;;;;;;;16.57;63.79;100359.97;1797688;77;22234;-67
2021/06/07 01:06:44;;;;;;;7.15;5.22;;;;;;;16.56;63.80;100360.89;1834427;77;22200;-67
2021/06/07 01:09:32;;;;;;;8.75;5.28;;;;;;;16.51;63.80;100358.42;1725359;82;21558;-68
2021/06/07 01:12:07;;;;;;;6.95;5.62;;;;;;;16.50;63.82;100361.52;1815184;77;22642;-67
2021/06/07 01:14:40;;;;;;;8.48;5.65;;;;;;;16.46;63.95;100369.68;1821597;77;22621;-67
2021/06/07 01:17:14;;;;;;;8.93;6.10;;;;;;;16.42;64.02;100368.05;1851883;77;22170;-68
2021/06/07 01:19:47;;;;;;;8.83;6.50;;;;;;;16.41;64.12;100365.84;1819649;77;22241;-67
2021/06/07 01:22:21;;;;;;;9.28;5.83;;;;;;;16.38;64.30;100364.62;1822405;77;22183;-68
2021/06/07 01:24:54;;;;;;;7.90;5.47;;;;;;;16.35;64.40;100366.95;1834418;77;22180;-68
2021/06/07 01:27:27;;;;;;;7.95;6.25;;;;;;;16.34;64.51;100361.23;1827874;77;22179;-67
2021/06/07 01:30:07;;;;;;;9.60;6.40;;;;;;;16.34;64.52;100366.98;1822067;77;22582;-66
2021/06/07 01:32:40;;;;;;;8.30;6.47;;;;;;;16.36;64.51;100363.81;1830981;77;22188;-67
2021/06/07 01:35:13;;;;;;;9.35;6.22;;;;;;;16.37;64.51;100365.55;1833001;77;22639;-67
2021/06/07 01:37:47;;;;;;;8.98;6.85;;;;;;;16.37;64.52;100365.55;1847884;77;22233;-65
2021/06/07 01:40:36;;;;;;;9.23;6.80;;;;;;;16.38;64.58;100359.80;1824299;77;22194;-66
2021/06/07 01:43:09;;;;;;;7.87;6.42;;;;;;;16.37;64.61;100362.89;1824344;77;22630;-67
2021/06/07 01:45:46;;;;;;;9.98;6.50;;;;;;;16.38;64.63;100359.31;1812056;77;22609;-67
2021/06/07 01:48:20;;;;;;;7.47;5.65;;;;;;;16.39;64.64;100362.86;1819907;77;20161;-66
2021/06/07 01:50:56;;;;;;;9.63;5.55;;;;;;;16.35;64.63;100355.00;1828395;77;22183;-66
2021/06/07 01:53:31;;;;;;;10.53;8.03;;;;;;;16.39;64.59;100357.06;1801213;77;38910;-66
2021/06/07 01:56:06;;;;;;;8.50;6.47;;;;;;;16.40;64.57;100357.47;1852241;77;22163;-66
2021/06/07 01:58:52;;;;;;;9.28;5.75;;;;;;;16.39;64.51;100365.03;1793161;78;21123;-67
2021/06/07 02:01:26;;;;;;;8.88;5.70;;;;;;;16.41;64.58;100364.52;1852786;77;22191;-66
2021/06/07 02:03:59;;;;;;;8.43;5.40;;;;;;;16.46;64.46;100361.23;1807188;77;22460;-66
2021/06/07 02:06:33;;;;;;;11.90;5.95;;;;;;;16.29;64.93;100359.67;1820652;77;22591;-66
2021/06/07 02:09:06;;;;;;;8.73;5.35;;;;;;;16.20;65.17;100356.43;1819373;77;22227;-66
2021/06/07 02:11:39;;;;;;;8.85;5.10;;;;;;;16.19;65.26;100361.78;1833269;77;22631;-56
2021/06/07 02:14:13;;;;;;;6.00;4.92;;;;;;;16.17;65.31;100360.97;1818143;78;22233;-56
2021/06/07 02:16:46;;;;;;;7.60;4.75;;;;;;;16.16;65.30;100361.88;1827740;77;22591;-56
2021/06/07 02:19:19;;;;;;;4.90;3.98;;;;;;;16.18;65.31;100362.70;1808691;77;22230;-66
2021/06/07 02:21:53;;;;;;;7.65;5.72;;;;;;;16.18;65.29;100365.36;1835237;77;22198;-56
2021/06/07 02:24:26;;;;;;;6.78;4.42;;;;;;;16.17;65.30;100361.84;1820847;77;22204;-56
2021/06/07 02:27:00;;;;;;;5.62;4.05;;;;;;;16.18;65.32;100368.01;1846143;77;22151;-56
2021/06/07 02:29:34;;;;;;;7.12;4.10;;;;;;;16.20;65.39;100367.05;1805500;77;22666;-56
2021/06/07 02:32:08;;;;;;;4.78;3.70;;;;;;;16.23;65.42;100362.55;1820402;77;22195;-56
2021/06/07 02:34:54;;;;;;;6.62;3.77;;;;;;;16.22;65.42;100364.80;1738334;81;21130;-57
2021/06/07 02:37:27;;;;;;;6.53;4.08;;;;;;;16.27;65.47;100363.70;1833810;77;22188;-55
2021/06/07 02:40:03;;;;;;;7.28;3.98;;;;;;;16.30;65.54;100368.05;1830245;77;22144;-56
2021/06/07 02:42:39;;;;;;;7.25;3.58;;;;;;;16.34;65.65;100374.95;1835636;77;22492;-56
2021/06/07 02:45:14;;;;;;;5.70;3.92;;;;;;;16.41;65.63;100375.14;1852699;77;22203;-56
2021/06/07 02:47:50;;;;;;;7.03;3.70;;;;;;;16.46;65.70;100368.34;1816634;77;22238;-56
2021/06/07 02:50:28;;;;;;;5.65;4.00;;;;;;;16.52;65.73;100369.45;1820127;77;22191;-56
2021/06/07 02:53:01;;;;;;;4.97;3.65;;;;;;;16.58;65.81;100376.32;1818663;77;22237;-56
2021/06/07 02:55:37;;;;;;;18.45;3.95;;;;;;;16.64;65.85;100377.42;1813269;77;22206;-56
2021/06/07 02:58:23;;;;;;;5.40;3.77;;;;;;;16.64;65.98;100379.60;1700030;83;21186;-56
2021/06/07 03:01:06;;;;;;;5.55;3.90;;;;;;;16.76;66.08;100379.63;1839272;77;22692;-56
2021/06/07 03:03:39;;;;;;;4.70;3.22;;;;;;;16.84;66.15;100377.11;1817692;77;22226;-56
2021/06/07 03:06:25;;;;;;;6.67;3.58;;;;;;;16.86;66.10;100389.87;1760895;80;21550;-57
2021/06/07 03:08:58;;;;;;;6.80;3.47;;;;;;;16.63;66.82;100381.00;1813294;77;22198;-56
2021/06/07 03:11:32;;;;;;;5.97;3.67;;;;;;;16.31;68.04;100383.91;1809831;77;22210;-56
2021/06/07 03:14:11;;;;;;;4.60;3.05;;;;;;;16.90;66.42;100379.53;1809123;77;22194;-56
2021/06/07 03:16:44;;;;;;;5.35;3.30;;;;;;;16.92;66.30;100374.58;1829442;77;22179;-56
2021/06/07 03:19:18;;;;;;;6.42;3.25;;;;;;;16.92;66.28;100378.56;1827725;77;22199;-55
2021/06/07 03:21:51;;;;;;;7.45;4.12;;;;;;;17.01;66.04;100381.35;1852814;77;22623;-56
2021/06/07 03:24:38;;;;;;;6.85;4.05;;;;;;;16.99;65.98;100387.19;1749346;81;21172;-57
2021/06/07 03:27:13;;;;;;;6.62;3.42;;;;;;;17.02;65.93;100379.09;1831457;77;22205;-66
2021/06/07 03:29:46;;;;;;;5.78;3.37;;;;;;;17.04;65.87;100381.69;1820148;77;22656;-67
2021/06/07 03:32:21;;;;;;;5.37;3.62;;;;;;;17.06;65.78;100388.69;1826175;77;22191;-68
2021/06/07 03:34:55;;;;;;;4.58;3.22;;;;;;;17.09;65.71;100388.57;1851714;77;22634;-67
2021/06/07 03:37:30;;;;;;;6.05;3.17;;;;;;;17.07;65.62;100387.77;1824982;77;22194;-68
2021/06/07 03:40:12;;;;;;;4.70;3.40;;;;;;;17.09;65.59;100389.02;1834472;77;22180;-66
2021/06/07 03:42:46;;;;;;;6.87;3.35;;;;;;;17.09;65.59;100394.34;1829422;77;22266;-66
2021/06/07 03:45:19;;;;;;;6.42;3.58;;;;;;;17.12;65.52;100396.03;1852777;77;22178;-67
2021/06/07 03:48:08;;;;;;;4.47;2.98;;;;;;;17.07;65.52;100397.07;1758239;81;21593;-68
2021/06/07 03:50:42;;;;;;;4.58;3.40;;;;;;;17.15;65.70;100394.09;1833626;77;22183;-68
2021/06/07 03:53:15;;;;;;;5.00;3.55;;;;;;;17.20;66.02;100395.27;1823010;77;22694;-69
2021/06/07 03:56:02;;;;;;;5.70;3.72;;;;;;;17.21;66.19;100401.84;1768407;80;21288;-68
2021/06/07 03:58:35;;;;;;;6.25;3.60;;;;;;;17.36;66.34;100395.52;1818703;77;22234;-69
2021/06/07 04:01:08;;;;;;;5.83;3.92;;;;;;;17.46;66.49;100393.34;1816507;77;22171;-68
2021/06/07 04:03:41;;;;;;;5.40;3.58;;;;;;;17.57;66.79;100397.76;1816353;77;22202;-68
2021/06/07 04:06:16;;;;;;;5.65;3.10;;;;;;;17.72;66.98;100395.37;1807920;77;22214;-67
2021/06/07 04:08:55;;;;;;;6.83;3.58;;;;;;;17.86;66.90;100391.67;1819743;77;22229;-67
2021/06/07 04:11:25;;;;;;;10.13;3.87;;;;;;;17.96;66.88;100385.03;1818900;77;22588;-68
2021/06/07 04:13:58;;;;;;;8.25;3.45;;;;;;;18.07;66.71;100381.92;1821510;77;22218;-69
2021/06/07 04:16:31;;;;;;;8.83;3.67;;;;;;;18.20;66.91;100384.05;1828768;77;22195;-68
2021/06/07 04:19:04;;;;;;;4.42;3.42;;;;;;;18.35;67.16;100387.83;1810230;77;22214;-68
2021/06/07 04:21:40;;;;;;;7.03;3.55;;;;;;;18.51;67.45;100388.89;1790102;77;22618;-67
2021/06/07 04:24:13;;;;;;;6.70;3.77;;;;;;;18.69;67.71;100388.51;1806145;77;22610;-69
2021/06/07 04:26:59;;;;;;;7.17;4.33;;;;;;;18.81;67.46;100395.52;1761799;81;21142;-70
2021/06/07 04:29:32;;;;;;;6.90;3.72;;;;;;;19.00;67.66;100403.09;1801271;77;22218;-71
2021/06/07 04:32:07;;;;;;;8.28;3.83;;;;;;;19.15;67.34;100397.98;1825892;77;22163;-71
2021/06/07 04:34:53;;;;;;;5.62;3.55;;;;;;;19.13;67.35;100403.37;1764420;81;21287;-71
2021/06/07 04:37:28;;;;;;;7.33;4.10;;;;;;;19.25;67.35;100396.58;1822045;77;22191;-69
2021/06/07 04:40:01;;;;;;;5.87;3.40;;;;;;;19.36;67.26;100391.19;1810543;77;22641;-71
2021/06/07 04:42:54;;;;;;;5.75;3.47;;;;;;;19.42;66.82;100387.77;1802596;77;22688;-56
2021/06/07 04:45:27;;;;;;;7.80;3.50;;;;;;;19.47;66.73;100384.38;1827934;77;22206;-54
2021/06/07 04:48:13;;;;;;;7.60;3.80;;;;;;;19.51;66.73;100392.23;1768898;80;21204;-54
2021/06/07 04:50:46;;;;;;;7.42;3.50;;;;;;;19.67;66.79;100388.33;1818556;77;22615;-54
2021/06/07 04:53:20;;;;;;;6.37;3.72;;;;;;;19.83;66.36;100388.44;1806124;77;22247;-54
2021/06/07 04:55:53;;;;;;;6.30;3.62;;;;;;;19.99;66.89;100389.40;1817986;77;22167;-54
2021/06/07 04:58:28;;;;;;;8.35;3.50;;;;;;;20.16;66.48;100383.66;1827232;77;22233;-54
2021/06/07 05:01:16;;;;;;;7.28;3.87;;;;;;;20.21;65.93;100386.47;1792954;80;21162;-55
2021/06/07 05:03:49;;;;;;;6.35;3.67;;;;;;;20.33;65.55;100389.45;1824824;77;22185;-54
2021/06/07 05:06:23;;;;;;;6.75;3.30;;;;;;;20.35;65.84;100387.07;1818010;77;22198;-69
2021/06/07 05:08:56;;;;;;;5.03;3.40;;;;;;;20.46;65.93;100388.31;1813691;77;22242;-70
2021/06/07 05:11:29;;;;;;;5.58;3.40;;;;;;;20.57;66.14;100385.94;1852576;77;22202;-68
2021/06/07 05:14:02;;;;;;;6.17;3.65;;;;;;;20.77;66.24;100381.32;1830605;77;22202;-69
2021/06/07 05:16:38;;;;;;;7.53;3.98;;;;;;;20.90;65.77;100378.86;1818112;77;22170;-67
2021/06/07 05:19:12;;;;;;;5.08;3.42;;;;;;;21.06;65.94;100385.05;1808755;77;22226;-68
2021/06/07 05:21:45;;;;;;;4.90;3.15;;;;;;;21.32;65.60;100381.39;1812339;77;22182;-69
2021/06/07 05:24:18;;;;;;;5.40;3.42;;;;;;;21.60;65.13;100384.28;1806738;77;22236;-67
2021/06/07 05:26:51;;;;;;;7.25;3.92;;;;;;;21.78;64.87;100389.91;1834385;77;22604;-67
2021/06/07 05:29:24;;;;;;;6.05;3.40;;;;;;;21.98;64.77;100379.34;1807574;77;22250;-68
2021/06/07 05:31:57;;;;;;;4.97;3.33;;;;;;;22.18;64.20;100385.32;1816869;77;22174;-67
2021/06/07 05:34:30;;;;;;;7.40;3.52;;;;;;;22.38;63.86;100377.85;1806016;77;22258;-69
2021/06/07 05:37:17;;;;;;;7.28;3.00;;;;;;;22.55;63.22;100386.22;1760177;81;21178;-68
2021/06/07 05:39:50;;;;;;;6.80;3.50;;;;;;;22.73;62.29;100379.70;1900569;74;22171;-66
2021/06/07 05:42:23;;;;;;;7.72;2.85;;;;;;;22.88;62.11;100377.01;1852742;77;22214;-67
2021/06/07 05:45:12;;;;;;;5.92;3.10;;;;;;;22.98;61.72;100379.95;1717823;83;21639;-67
2021/06/07 05:47:46;;;;;;;6.78;3.85;;;;;;;23.19;61.99;100380.38;1816438;77;22242;-66
2021/06/07 05:50:21;;;;;;;6.65;4.12;;;;;;;23.34;60.85;100374.51;1807413;77;22643;-64
2021/06/07 05:52:54;;;;;;;5.80;3.17;;;;;;;23.43;60.19;100370.34;1846144;77;22641;-66
2021/06/07 05:55:37;;;;;;;5.65;3.65;;;;;;;23.51;59.03;100368.02;1826668;77;22591;-66
2021/06/07 05:58:26;;;;;;;6.05;3.27;;;;;;;23.60;59.45;100370.58;1778467;80;21139;-66
2021/06/07 06:00:59;;;;;;;5.03;3.33;;;;;;;23.62;58.29;100372.69;1834423;77;22175;-54
2021/06/07 06:03:32;;;;;;;5.87;3.52;;;;;;;23.69;58.27;100371.78;1816235;77;22708;-66
2021/06/07 06:06:25;;;;;;;6.08;3.33;;;;;;;23.78;58.14;100372.97;1803671;77;22218;-55
2021/06/07 06:08:58;;;;;;;8.00;3.50;;;;;;;23.88;57.94;100378.10;1808954;77;22238;-54
2021/06/07 06:11:32;;;;;;;6.22;3.70;;;;;;;23.95;57.20;100372.69;1834328;77;22204;-54
2021/06/07 06:14:05;;;;;;;5.92;3.40;;;;;;;24.17;57.16;100370.75;1810893;77;22218;-54
2021/06/07 06:16:38;;;;;;;6.00;3.35;;;;;;;24.32;57.21;100373.30;1818261;77;22159;-54
2021/06/07 06:19:12;;;;;;;5.45;3.20;;;;;;;24.46;56.85;100376.39;1828185;77;22226;-54
2021/06/07 06:21:46;;;;;;;5.30;3.33;;;;;;;24.59;56.04;100379.06;1833707;77;22175;-54
2021/06/07 06:24:19;;;;;;;5.90;3.70;;;;;;;24.69;55.54;100375.22;1808616;77;23287;-54
2021/06/07 06:26:52;;;;;;;5.72;3.42;;;;;;;24.78;54.16;100367.86;1797120;77;22586;-54
2021/06/07 06:29:25;;;;;;;5.35;3.00;;;;;;;24.79;54.65;100368.23;1825001;77;22241;-54
2021/06/07 06:31:59;;;;;;;6.75;3.37;;;;;;;24.87;54.20;100369.89;1831025;77;22586;-54
2021/06/07 06:34:32;;;;;;;4.10;2.62;;;;;;;25.01;54.35;100368.00;1804341;77;22253;-55
2021/06/07 06:37:07;;;;;;;6.62;3.20;;;;;;;25.23;54.04;100374.00;1834209;77;22572;-55
2021/06/07 06:39:53;;;;;;;5.65;3.10;;;;;;;25.43;53.53;100371.67;1761162;81;21298;-56
2021/06/07 06:42:29;;;;;;;6.75;3.30;;;;;;;25.73;52.85;100375.73;1821097;77;22547;-55
2021/06/07 06:45:07;;;;;;;4.05;2.75;;;;;;;25.94;52.66;100370.05;1816103;77;23236;-55
2021/06/07 06:48:00;;;;;;;4.15;2.58;;;;;;;26.22;51.41;100376.00;1813465;77;22214;-55
2021/06/07 06:50:36;;;;;;;5.90;3.15;;;;;;;26.33;50.70;100379.70;1817558;77;22175;-54
2021/06/07 06:53:13;;;;;;;5.75;3.30;;;;;;;26.45;51.07;100373.81;1790953;77;28121;-55
2021/06/07 06:55:50;;;;;;;5.37;2.90;;;;;;;26.68;50.38;100378.24;1790024;77;22229;-55
2021/06/07 06:58:25;;;;;;;5.58;2.70;;;;;;;26.83;49.68;100370.77;1812821;77;22254;-55
2021/06/07 07:00:58;;;;;;;4.30;3.00;;;;;;;27.06;49.51;100371.22;1829231;77;22566;-55
2021/06/07 07:03:31;;;;;;;5.72;2.80;;;;;;;27.23;49.20;100372.02;1819461;77;22231;-55
2021/06/07 07:06:07;;;;;;;4.80;2.98;;;;;;;27.36;49.73;100375.05;1851125;77;22622;-55
2021/06/07 07:08:40;;;;;;;4.92;2.77;;;;;;;27.47;48.80;100370.97;1805974;77;22671;-55
2021/06/07 07:11:13;;;;;;;9.15;3.30;;;;;;;27.59;46.92;100371.80;1829019;77;22156;-55
2021/06/07 07:13:47;;;;;;;6.37;2.75;;;;;;;27.57;47.65;100369.25;1827627;77;22175;-55
2021/06/07 07:16:20;;;;;;;4.92;3.00;;;;;;;27.68;47.64;100369.67;1834356;77;22449;-55
2021/06/07 07:18:54;;;;;;;5.25;2.65;;;;;;;27.91;47.19;100374.95;1827157;77;22207;-55
2021/06/07 07:21:34;;;;;;;5.67;3.10;;;;;;;28.00;46.43;100374.67;1833527;77;22200;-55
2021/06/07 07:24:09;;;;;;;8.80;4.50;;;;;;;28.11;46.31;100369.67;1811336;77;22234;-55
2021/06/07 09:01:38;;;;;;;3.70;1.92;;;;;;;29.87;41.12;100392.85;1834365;77;22670;-65
2021/06/07 09:04:26;;;;;;;3.40;2.10;;;;;;;29.83;40.30;100397.21;1785955;80;21333;-64
2021/06/07 09:07:03;;;;;;;7.22;2.10;;;;;;;29.86;39.82;100393.85;1811784;77;22620;-63
2021/06/07 09:10:10;;;;;;;4.45;1.80;;;;;;;29.83;39.62;100390.43;1781821;79;21138;-65
2021/06/07 09:12:44;;;;;;;4.78;2.00;;;;;;;29.87;39.67;100393.70;1827829;77;22136;-64
2021/06/07 09:15:40;;;;;;;3.85;2.15;;;;;;;29.89;39.32;100390.86;1775168;80;21169;-65
2021/06/07 09:18:17;;;;;;;11.33;2.35;;;;;;;30.02;39.13;100381.95;1834015;77;22137;-54
2021/06/07 09:21:31;;;;;;;3.98;2.80;;;;;;;30.03;40.11;100381.44;1765125;79;21179;-55
2021/06/07 09:24:06;;;;;;;5.10;2.12;;;;;;;30.20;39.50;100373.91;1835305;77;22147;-54
2021/06/07 09:26:52;;;;;;;3.35;2.30;;;;;;;30.26;39.59;100380.08;1761739;81;21545;-54
2021/06/07 09:29:33;;;;;;;3.22;2.10;;;;;;;30.51;39.73;100370.93;1815937;77;22219;-54
2021/06/07 09:32:19;;;;;;;5.05;2.58;;;;;;;30.76;39.12;100378.05;1763185;80;21163;-55
2021/06/07 09:35:08;;;;;;;3.02;2.25;;;;;;;31.21;38.19;100365.52;1817501;77;22183;-55
2021/06/07 09:38:05;;;;;;;5.25;1.82;;;;;;;31.36;36.18;100373.98;1756846;81;21324;-55
2021/06/07 09:40:38;;;;;;;3.65;1.90;;;;;;;31.57;36.81;100359.23;1811208;77;22234;-55
2021/06/07 09:43:11;;;;;;;4.30;1.90;;;;;;;31.75;36.26;100353.80;1834360;77;22566;-55
2021/06/07 09:45:48;;;;;;;2.98;1.70;;;;;;;31.99;35.99;100353.61;1795758;77;22214;-55
2021/06/07 09:48:30;;;;;;;5.78;2.00;;;;;;;32.09;35.66;100353.50;1817465;77;22150;-55
2021/06/07 09:51:04;;;;;;;6.25;1.90;;;;;;;32.27;34.57;100358.38;1805425;77;22202;-55
2021/06/07 09:53:51;;;;;;;4.40;1.87;;;;;;;32.16;34.29;100351.35;1828419;77;22623;-55
2021/06/07 09:56:57;;;;;;;4.83;2.35;;;;;;;31.91;35.09;100353.06;1763591;81;21332;-56
2021/06/07 09:59:38;;;;;;;6.35;2.20;;;;;;;32.23;34.96;100354.80;1809992;77;22226;-55
2021/06/07 10:02:20;;;;;;;3.05;1.85;;;;;;;32.30;34.93;100350.42;1813175;77;22163;-55
2021/06/07 10:04:58;;;;;;;4.47;2.10;;;;;;;32.39;35.19;100350.81;1823294;77;22628;-55
2021/06/07 10:07:31;;;;;;;4.22;1.90;;;;;;;32.45;34.96;100346.60;1825245;77;22156;-55
2021/06/07 10:10:21;;;;;;;3.47;1.92;;;;;;;32.44;35.49;100351.70;1817534;77;22247;-55
2021/06/07 10:13:00;;;;;;;3.83;1.80;;;;;;;32.47;35.21;100348.63;1834074;77;22156;-55
2021/06/07 10:15:41;;;;;;;3.30;2.00;;;;;;;32.47;34.72;100355.44;1809592;77;22634;-55
2021/06/07 10:18:18;;;;;;;3.02;1.85;;;;;;;32.40;34.73;100350.32;1825717;77;22174;-55
2021/06/07 10:20:51;;;;;;;2.65;1.67;;;;;;;32.23;35.10;100352.08;1807919;77;22182;-54
2021/06/07 10:23:30;;;;;;;6.67;2.00;;;;;;;32.04;34.63;100352.11;1818673;77;22193;-56
2021/06/07 10:26:06;;;;;;;3.70;1.82;;;;;;;31.91;34.73;100348.98;1801687;77;22677;-55
2021/06/07 10:28:41;;;;;;;4.78;1.90;;;;;;;31.97;34.75;100348.84;1817931;77;20140;-55
2021/06/07 10:31:27;;;;;;;3.02;1.72;;;;;;;32.03;34.75;100348.20;1771342;80;21126;-55
2021/06/07 10:34:03;;;;;;;5.62;2.58;;;;;;;32.01;34.94;100341.54;1847400;77;22167;-55
2021/06/07 10:36:45;;;;;;;4.72;2.15;;;;;;;31.90;35.03;100344.55;1837020;77;27980;-56
2021/06/07 10:39:22;;;;;;;5.05;2.05;;;;;;;31.85;34.48;100348.25;1825748;77;22222;-55
2021/06/07 10:42:14;;;;;;;;;;;;;;;31.96;34.26;100345.77;1785851;80;21122;-55
2021/06/07 10:44:51;;;;;;;2.77;1.95;;;;;;;32.13;33.65;100340.78;1790060;77;22231;-55
2021/06/07 10:47:41;;;;;;;3.17;1.50;;;;;;;32.30;34.58;100336.80;1834230;77;22168;-54
2021/06/07 10:50:18;;;;;;;4.37;1.90;;;;;;;32.62;33.76;100329.30;1812839;77;22195;-55
2021/06/07 10:53:01;;;;;;;3.98;1.98;;;;;;;32.72;34.32;100335.13;1833392;77;22168;-55
2021/06/07 10:55:38;;;;;;;4.45;1.90;;;;;;;32.73;34.24;100330.85;1811671;77;22202;-55
2021/06/07 10:58:12;;;;;;;3.05;2.10;;;;;;;32.96;33.96;100315.78;1834024;77;22184;-55
2021/06/07 11:00:49;;;;;;;3.33;1.82;;;;;;;33.14;32.98;100315.14;1825320;77;22186;-55
2021/06/07 11:03:28;;;;;;;3.42;1.80;;;;;;;33.24;33.29;100316.34;1849136;77;22139;-55
2021/06/07 11:06:05;;;;;;;5.08;1.72;;;;;;;33.56;32.87;100305.11;1816688;77;22585;-55
2021/06/07 11:08:39;;;;;;;3.33;1.75;;;;;;;33.81;32.56;100314.13;1822551;77;22210;-55
2021/06/07 11:11:16;;;;;;;2.47;1.92;;;;;;;33.78;31.70;100312.27;1812280;77;22229;-55
2021/06/07 11:13:54;;;;;;;3.65;1.60;;;;;;;33.73;31.46;100311.93;1822147;77;22167;-55
2021/06/07 11:16:43;;;;;;;3.25;1.80;;;;;;;33.77;31.99;100302.38;1760417;81;21236;-55
2021/06/07 11:19:17;;;;;;;2.85;1.55;;;;;;;33.81;31.90;100301.84;1828550;77;22182;-55
2021/06/07 11:22:00;;;;;;;2.95;1.82;;;;;;;33.65;31.16;100304.09;1833937;77;22180;-54
2021/06/07 11:24:36;;;;;;;3.17;2.00;;;;;;;33.37;31.52;100296.24;1825246;77;22222;-55
2021/06/07 11:27:13;;;;;;;3.98;1.95;;;;;;;33.33;32.23;100302.22;1818745;77;27953;-55
2021/06/07 11:30:12;;;;;;;3.87;1.62;;;;;;;33.16;32.42;100300.83;1822870;77;22641;-55
2021/06/07 11:32:45;;;;;;;5.35;1.70;;;;;;;33.16;31.33;100291.78;1834443;77;22571;-55
2021/06/07 11:35:40;;;;;;;5.17;2.02;;;;;;;33.22;31.48;100290.62;1811335;77;22629;-54
2021/06/07 11:38:33;;;;;;;4.70;1.67;;;;;;;33.24;31.40;100287.70;1852804;77;22163;-55
2021/06/07 11:41:06;;;;;;;2.15;1.45;;;;;;;33.36;32.58;100289.08;1822226;77;22209;-55
2021/06/07 11:43:51;;;;;;;3.67;1.95;;;;;;;33.40;31.62;100279.23;1826438;77;22158;-65
2021/06/07 11:46:36;;;;;;;3.62;1.70;;;;;;;33.40;32.84;100281.95;1833660;77;22132;-67
2021/06/07 11:49:14;;;;;;;3.40;1.75;;;;;;;33.50;31.48;100281.28;1815802;77;22174;-65
2021/06/07 11:52:00;;;;;;;4.62;1.70;;;;;;;33.43;32.02;100282.98;1822289;77;22244;-55
2021/06/07 11:54:45;;;;;;;4.15;1.50;;;;;;;33.30;32.02;100281.58;1811471;77;22215;-66
2021/06/07 11:57:31;;;;;;;2.47;1.50;;;;;;;33.03;32.30;100286.84;1761358;81;21288;-55
2021/06/07 12:00:06;;;;;;;4.10;1.72;;;;;;;32.81;32.60;100275.55;1813006;77;22249;-55
2021/06/07 12:02:39;;;;;;;3.98;2.10;;;;;;;32.71;33.47;100273.47;1807108;77;28438;-55
2021/06/07 12:05:15;;;;;;;3.95;2.00;;;;;;;32.67;32.85;100270.73;1831457;77;22211;-55
2021/06/07 12:07:49;;;;;;;4.60;2.05;;;;;;;32.72;32.52;100265.12;1810951;77;28011;-67
2021/06/07 12:10:22;;;;;;;3.72;1.87;;;;;;;32.86;33.31;100265.52;1814427;77;22218;-67
2021/06/07 12:12:55;;;;;;;5.47;2.00;;;;;;;33.10;32.64;100263.34;1819220;77;22577;-66
2021/06/07 12:15:28;;;;;;;4.15;1.60;;;;;;;33.26;32.73;100255.67;1830877;77;22221;-66
2021/06/07 12:18:01;;;;;;;3.10;1.80;;;;;;;33.45;32.21;100261.31;1832958;77;22207;-67
2021/06/07 12:20:35;;;;;;;2.83;1.60;;;;;;;33.72;32.35;100263.84;1811601;77;22206;-67
2021/06/07 12:23:08;;;;;;;3.72;1.87;;;;;;;34.05;32.00;100258.31;1825640;77;22159;-65
2021/06/07 12:28:16;;;;;;;3.40;1.65;;;;;;;34.19;31.34;100258.95;1810026;77;22633;-68
2021/06/07 12:28:23;;;;;;;3.62;1.67;;;;;;;34.21;31.23;100256.05;1852396;77;22175;-67
2021/06/07 12:30:58;;;;;;;2.95;2.02;;;;;;;34.34;30.39;100255.48;1801553;77;22601;-64
2021/06/07 12:33:33;;;;;;;3.75;1.82;;;;;;;34.53;30.55;100245.48;1834045;77;22183;-66
2021/06/07 12:36:08;;;;;;;8.43;2.35;;;;;;;34.62;30.62;100245.45;1806240;77;28100;-66
2021/06/07 12:38:41;;;;;;;7.37;1.90;;;;;;;34.76;30.27;100250.14;1817453;77;22190;-66
2021/06/07 12:41:14;;;;;;;3.42;1.85;;;;;;;34.88;29.85;100246.47;1815682;77;22232;-66
2021/06/07 12:43:50;;;;;;;2.80;1.60;;;;;;;35.12;28.90;100250.92;1823623;77;22198;-64
2021/06/07 12:46:24;;;;;;;6.95;2.22;;;;;;;34.97;29.04;100249.52;1801639;77;28056;-54
2021/06/07 12:48:57;;;;;;;3.65;1.57;;;;;;;34.50;29.75;100255.94;1819603;77;22187;-54
2021/06/07 12:51:30;;;;;;;4.22;2.20;;;;;;;34.76;29.67;100244.68;1822998;77;22206;-55
2021/06/07 12:54:16;;;;;;;5.53;1.67;;;;;;;34.79;29.88;100257.11;1792176;78;21178;-55
2021/06/07 12:56:50;;;;;;;5.85;1.62;;;;;;;34.99;29.00;100247.95;1816940;77;22230;-54
2021/06/07 12:59:29;;;;;;;4.50;1.70;;;;;;;35.06;28.79;100245.35;1829650;77;22198;-54
2021/06/07 13:02:06;;;;;;;2.92;1.55;;;;;;;35.04;28.69;100241.42;1827998;77;22142;-55
2021/06/07 13:04:39;;;;;;;4.80;1.62;;;;;;;34.84;28.97;100247.36;1809978;77;22162;-54
2021/06/07 13:07:16;;;;;;;3.10;1.42;;;;;;;34.76;29.05;100239.21;1817056;77;22202;-54
2021/06/07 13:09:51;;;;;;;7.58;1.90;;;;;;;34.63;29.05;100241.19;1817668;77;22218;-54
2021/06/07 13:12:26;;;;;;;4.08;1.70;;;;;;;34.50;29.09;100241.75;1804803;77;22197;-55
2021/06/07 13:15:00;;;;;;;4.47;2.00;;;;;;;34.33;29.56;100246.95;1816567;77;22217;-55
2021/06/07 13:17:33;;;;;;;5.10;1.60;;;;;;;34.09;29.92;100238.69;1824245;77;22209;-54
2021/06/07 13:20:15;;;;;;;6.10;1.60;;;;;;;33.87;30.63;100234.81;1817978;77;22202;-66
2021/06/07 13:22:48;;;;;;;3.72;1.50;;;;;;;33.86;30.70;100239.93;1817693;77;22178;-68
2021/06/07 13:25:22;;;;;;;8.08;1.90;;;;;;;33.90;30.18;100237.19;1803873;77;22186;-67
2021/06/07 13:28:15;;;;;;;5.37;1.72;;;;;;;33.98;29.26;100234.97;1820680;77;22613;-64
2021/06/07 13:30:49;;;;;;;9.20;2.08;;;;;;;33.89;30.05;100236.85;1815861;77;22222;-67
2021/06/07 13:33:29;;;;;;;3.85;1.55;;;;;;;33.83;29.74;100233.45;1818987;77;22163;-66
2021/06/07 13:36:04;;;;;;;4.15;1.50;;;;;;;33.93;29.58;100222.36;1804130;77;22700;-68
2021/06/07 13:38:40;;;;;;;3.90;1.42;;;;;;;34.00;29.33;100222.00;1833772;77;22156;-67
2021/06/07 13:41:26;;;;;;;3.22;1.22;;;;;;;34.01;29.32;100227.80;1761496;81;21652;-69
2021/06/07 13:43:59;;;;;;;6.37;1.90;;;;;;;34.03;28.92;100220.77;1833094;77;23255;-68
2021/06/07 13:46:34;;;;;;;3.80;1.27;;;;;;;33.79;29.08;100213.83;1826400;77;22147;-68